CheckWX is a tool to help pilots better visualize weather data.  It is not intended as a substitute for an official pre-flight weather briefing.

02:55:06 UTC

KASD METAR
Slidell Airport
Slidell, Louisiana, USA
Current

38 mins ago

KASD 180217Z AUTO 34012G17KT 10SM BKN012 OVC055 20/16 A2986 RMK AO2 T02000156
Observed
Feb-18 @ 02:17 UTC
Wind
  • 340° at 12 KTS
  • Gusting to 17 KTS
Visibility
10 SM
Flight Rules
MVFR
Cloud Levels
  • Broken at 1,200' AGL
  • Overcast at 5,500' AGL
Temperature
20°C / 68°F
Dewpoint
16°C / 61°F
Humidity
78%
Altimeter
29.86" Hg
Pressure
1011.22 hPa
Previous

1 hour ago

KASD 180153Z AUTO 00000KT 10SM OVC050 22/19 A2984 RMK AO2 SLP105 T02220194
Observed
Feb-18 @ 01:53 UTC
Visibility
10 SM
Flight Rules
VFR
Cloud Levels
  • Overcast at 5,000' AGL
Temperature
22°C / 72°F
Dewpoint
19°C / 66°F
Humidity
83%
Altimeter
29.84" Hg
Pressure
1010.5 hPa
Previous

2 hours ago

KASD 180121Z AUTO 18005KT 10SM SCT025 OVC050 22/19 A2983 RMK AO2 T02170194
Observed
Feb-18 @ 01:21 UTC
Wind
  • 180° at 5 KTS
Visibility
10 SM
Flight Rules
VFR
Cloud Levels
  • Scattered at 2,500' AGL
  • Overcast at 5,000' AGL
Temperature
22°C / 72°F
Dewpoint
19°C / 66°F
Humidity
83%
Altimeter
29.83" Hg
Pressure
1010.12 hPa